Thorco Crystal — V2BP9 — position and weather

sailwx.info

Track history (hours):
 
Tides and Currents Weather Stations Pressure Air Temp Water Temp Dewpoint Dewpoint Depression Visibility Wind Speed Wind Dir Waves Ship Positions

Thorco Crystal

Last reported at 2017-Jun-20 09:02 UTC. Time now 2017-Jun-27 22:23 UTC.
Position S 08°09' E 125°60'.

Length 145 m; draft 6.3 m.

Type: Cargo ship. MMSI: 304736000.

Date/timePositionNaut miles runAvg speedWind from/ knotsBaromVisibWave heightAir tempDewpointWater temp
2017-Jun-20 09:02S 08°09' E 125°60'012.1
2017-Jun-20 09:00S 08°09' E 125°60'510.2
2017-Jun-20 08:30S 08°08' E 125°54'510.6
2017-Jun-20 08:00S 08°08' E 125°49'2211.7
2017-Jun-20 06:05S 08°04' E 125°27'211.2
2017-Jun-20 05:54S 08°04' E 125°25'711.8
2017-Jun-20 05:17S 08°03' E 125°17'412.6
2017-Jun-20 04:59S 08°03' E 125°14'  
2017-Jun-15 00:54N 01°14' E 104°02'512.5
2017-Jun-15 00:30N 01°13' E 103°57'3 4.0
2017-Jun-14 23:40N 01°10' E 103°57'0 0.2
2017-Jun-14 23:28N 01°10' E 103°57'0 0.0
2017-Jun-14 17:22N 01°10' E 103°56'0 0.0
2017-Jun-14 16:52N 01°10' E 103°56'0 0.0
2017-Jun-14 09:29N 01°10' E 103°57'2 2.3
2017-Jun-14 08:46N 01°10' E 103°55'1 4.0
2017-Jun-14 08:29N 01°11' E 103°55'4 7.8
2017-Jun-14 08:00N 01°15' E 103°54'1 0.3
2017-Jun-14 04:28N 01°15' E 103°53'0 0.0
2017-Jun-14 03:54N 01°15' E 103°53'0 0.1
2017-Jun-14 03:06N 01°15' E 103°53'0 0.1
2017-Jun-14 01:27N 01°15' E 103°53'0 0.2
2017-Jun-14 00:58N 01°15' E 103°53'0 0.2
2017-Jun-14 00:12N 01°15' E 103°53'0 0.2
2017-Jun-13 23:58N 01°15' E 103°53'0 0.0
2017-Jun-13 23:18N 01°15' E 103°53'0 0.0
2017-Jun-13 22:58N 01°15' E 103°53'0 0.0
2017-Jun-13 22:12N 01°15' E 103°53'0 0.0
2017-Jun-13 21:52N 01°15' E 103°53'0 0.0
2017-Jun-13 19:24N 01°15' E 103°53'0 0.7
2017-Jun-13 18:59N 01°15' E 103°53'2 3.6
2017-Jun-13 18:30N 01°14' E 103°54'3 5.3
2017-Jun-13 18:00N 01°14' E 103°56'  
Track history (hours):
 
Tides and Currents Weather Stations Pressure Air Temp Water Temp Dewpoint Dewpoint Depression Visibility Wind Speed Wind Dir Waves Ship Positions

Thorco Crystal

Last reported at 2017-Jun-20 09:02 UTC. Time now 2017-Jun-27 22:23 UTC.
Position S 08°09' E 125°60'.

Length 145 m; draft 6.3 m.

Type: Cargo ship. MMSI: 304736000.

Date/timePositionNaut miles runAvg speedWind from/ knotsBaromVisibWave heightAir tempDewpointWater temp
2017-Jun-20 09:02S 08°09' E 125°60'012.1
2017-Jun-20 09:00S 08°09' E 125°60'510.2
2017-Jun-20 08:30S 08°08' E 125°54'510.6
2017-Jun-20 08:00S 08°08' E 125°49'2211.7
2017-Jun-20 06:05S 08°04' E 125°27'211.2
2017-Jun-20 05:54S 08°04' E 125°25'711.8
2017-Jun-20 05:17S 08°03' E 125°17'412.6
2017-Jun-20 04:59S 08°03' E 125°14'  
2017-Jun-15 00:54N 01°14' E 104°02'512.5
2017-Jun-15 00:30N 01°13' E 103°57'3 4.0
2017-Jun-14 23:40N 01°10' E 103°57'0 0.2
2017-Jun-14 23:28N 01°10' E 103°57'0 0.0
2017-Jun-14 17:22N 01°10' E 103°56'0 0.0
2017-Jun-14 16:52N 01°10' E 103°56'0 0.0
2017-Jun-14 09:29N 01°10' E 103°57'2 2.3
2017-Jun-14 08:46N 01°10' E 103°55'1 4.0
2017-Jun-14 08:29N 01°11' E 103°55'4 7.8
2017-Jun-14 08:00N 01°15' E 103°54'1 0.3
2017-Jun-14 04:28N 01°15' E 103°53'0 0.0
2017-Jun-14 03:54N 01°15' E 103°53'0 0.1
2017-Jun-14 03:06N 01°15' E 103°53'0 0.1
2017-Jun-14 01:27N 01°15' E 103°53'0 0.2
2017-Jun-14 00:58N 01°15' E 103°53'0 0.2
2017-Jun-14 00:12N 01°15' E 103°53'0 0.2
2017-Jun-13 23:58N 01°15' E 103°53'0 0.0
2017-Jun-13 23:18N 01°15' E 103°53'0 0.0
2017-Jun-13 22:58N 01°15' E 103°53'0 0.0
2017-Jun-13 22:12N 01°15' E 103°53'0 0.0
2017-Jun-13 21:52N 01°15' E 103°53'0 0.0
2017-Jun-13 19:24N 01°15' E 103°53'0 0.7
2017-Jun-13 18:59N 01°15' E 103°53'2 3.6
2017-Jun-13 18:30N 01°14' E 103°54'3 5.3
2017-Jun-13 18:00N 01°14' E 103°56'  

Dump ship's entire track history